Nous contacter

Chronopale
59 Rue Léonce TOBO
62200 Boulogne sur mer
06 60 17 22 13
contact@chronopale.fr
www.chronopale.fr

 

42Km

42 Km Trail des 3 Forts du 18/09/21 (Reelle 42)
Rang Dossard Nom Prénom Temps Cat Rang Cat Ecart Ecart Cat Club Vitesse Km/h Temps au Km
1 4147 LOEUILLIEUX Pierre 03:31:20 SEM 1 00:00:00 00:00:00   11.924 05:02
2 4158 LOEUILLIEUX Stephane 03:51:03 M3M 1 00:19:43 00:00:00 Team run opale 10.907 05:30
3 4136 RETAUX Michael 03:53:54 M0M 1 00:22:34 00:00:00   10.774 05:34
4 4137 MARTIGNY Brigitte 03:55:10 M2F 1 00:23:50 00:00:00   10.716 05:36
5 4065 MAQUINGHEN Christophe 03:57:12 M2M 1 00:25:52 00:00:00 Boulogne ac 10.624 05:39
6 4163 LE BOHEC Anthony 03:58:03 M2M 2 00:26:43 00:00:51 As 16 10.586 05:40
7 4142 LEHON Ludovic 03:58:18 M0M 2 00:26:58 00:04:24 Ac outreau 10.575 05:40
8 4056 DETRE Bertrand 04:06:58 M1M 1 00:35:38 00:00:00   10.204 05:53
9 4160 SAND Olivier 04:08:27 M0M 3 00:37:07 00:14:33 Camb 10.143 05:55
10 4113 DUHAMEL Philippe 04:08:29 M5M 1 00:37:09 00:00:00   10.142 05:55
11 4107 BOURGAIN Sebastien 04:11:01 M2M 3 00:39:41 00:13:49 Ac outreau 10.039 05:59
12 4159 LEPRETRE Cyrille 04:11:48 M1M 2 00:40:28 00:04:50 Drapeau le portel 10.008 06:00
13 4043 FICQUET Romain 04:15:28 M0M 4 00:44:08 00:21:34 Boulogne ac 9.864 06:05
14 4106 LANOY Stephane 04:15:36 M2M 4 00:44:16 00:18:24 Aco 9.859 06:05
15 4049 SELLIER Benjamin 04:17:18 SEM 2 00:45:58 00:45:58   9.794 06:08
16 4140 DESAINS Stephane 04:17:45 M3M 2 00:46:25 00:26:42   9.777 06:08
17 4149 DELALANDE Julien 04:19:48 SEM 3 00:48:28 00:48:28   9.700 06:11
18 4082 ISIDORE Pierrick 04:21:43 SEM 4 00:50:23 00:50:23 Aco 9.629 06:14
19 4096 TINCHON Didier 04:25:16 M4M 1 00:53:56 00:00:00 Baco 9.500 06:19
20 4032 AVOT Jb 04:25:56 M0M 5 00:54:36 00:32:02   9.476 06:20
21 4020 RENOUX Jerome 04:26:05 M1M 3 00:54:45 00:19:07   9.471 06:20
22 4076 DELOZIERE Christophe 04:26:56 M2M 5 00:55:36 00:29:44   9.441 06:21
23 4036 CONDETTE Charles 04:30:38 SEM 5 00:59:18 00:59:18   9.311 06:27
24 4068 SANSON Caroline 04:30:41 M1F 1 00:59:21 00:00:00 Team trail in saint o 9.310 06:27
25 4094 MACQUET Benoit 04:32:00 M1M 4 01:00:40 00:25:02 A c outreau 9.265 06:29
26 4018 CARON Christophe 04:32:04 M0M 6 01:00:44 00:38:10   9.262 06:29
27 4033 ALLAERT Claude 04:32:26 M3M 3 01:01:06 00:41:23   9.250 06:29
28 4061 BAELEN David 04:33:17 M3M 4 01:01:57 00:42:14 Asud jogging 9.221 06:30
29 4022 MASSON Stephane 04:33:41 M2M 6 01:02:21 00:36:29   9.208 06:31
30 4055 SAILLY-SIRGUE Fabrice 04:36:16 M2M 7 01:04:56 00:39:04   9.122 06:35
31 4168 DUVETTE Christophe 04:36:38 M1M 5 01:05:18 00:29:40 Gravity 9.110 06:35
32 4162 JUSTIN Cedric 04:38:14 M1M 6 01:06:54 00:31:16 Boulogne atletic club 9.057 06:37
33 4111 PORET Gregory 04:38:36 M2M 8 01:07:16 00:41:24 Boulogne athletic club 9.045 06:38
34 4161 LECIGNE David 04:38:45 M2M 9 01:07:25 00:41:33 Bac 9.040 06:38
35 4091 MORICE Arnaud 04:39:03 M2M 10 01:07:43 00:41:51 Ac outreau 9.031 06:39
36 4059 FLENGHI Sylvain 04:40:33 M1M 7 01:09:13 00:33:35   8.982 06:41
37 4070 REQUIN Antoine 04:41:03 M0M 7 01:09:43 00:47:09 Jogging club licquois 8.966 06:42
38 4115 VANDEWALLE Thomas 04:41:12 M0M 8 01:09:52 00:47:18   8.962 06:42
39 4013 POCHET Aurelien 04:41:46 M0M 9 01:10:26 00:47:52   8.944 06:43
40 4008 HIVIN Thomas 04:41:48 SEM 6 01:10:28 01:10:28 Team trail opale 8.943 06:43
41 4009 SERGENT Jessie 04:42:05 M0F 1 01:10:45 00:00:00 Tto 8.934 06:43
42 4155 MAGNIER Tony 04:43:04 M0M 10 01:11:44 00:49:10   8.902 06:44
43 4095 MERLIN Loic 04:44:34 M0M 11 01:13:14 00:50:40 Ac outreau 8.856 06:47
44 4084 VINCENT Maxime 04:44:41 M2M 11 01:13:21 00:47:29 Tto - team trail opale 8.852 06:47
45 4016 SAINT-MAXENT Valentin 04:44:42 SEM 7 01:13:22 01:13:22 Team trail opale 8.851 06:47
46 4077 BREFORT Mickael 04:44:43 M1M 8 01:13:23 00:37:45   8.851 06:47
47 4174 HOUTEER MAGNI Justine 04:44:47 M1F 2 01:13:27 00:14:06   8.849 06:47
48 4143 MELLOUET Martial 04:45:04 M3M 5 01:13:44 00:54:01 Planete running and walking 8.840 06:47
49 4120 FLAHAUT Daniel 04:45:14 M2M 12 01:13:54 00:48:02 Amicale-le-drapeau-le-portel 8.835 06:47
50 4141 COUVELARD Julien 04:45:28 M0M 12 01:14:08 00:51:34   8.828 06:48
51 4133 GAZULLA Julien 04:45:38 SEM 8 01:14:18 01:14:18 Blaringhem trail 8.822 06:48
52 4064 LEVIEL Erika 04:45:39 M2F 2 01:14:19 00:50:29 Tto 8.822 06:48
53 4060 BAILLET Lionel 04:45:50 M2M 13 01:14:30 00:48:38 Boulogne ac 8.816 06:48
54 4166 COPPIN Mathieu 04:46:00 M3M 6 01:14:40 00:54:57   8.811 06:49
55 4118 PETITPRES Frederic 04:46:23 SEM 9 01:15:03 01:15:03   8.799 06:49
56 4172 MALARD Yvon 04:46:25 M0M 13 01:15:05 00:52:31 Aviron boulonnais 8.798 06:49
57 4011 DELETOILLE Julien 04:46:26 SEM 10 01:15:06 01:15:06   8.798 06:49
58 4110 DESACHY Marc 04:47:09 M2M 14 01:15:49 00:49:57 Ac outreau 8.776 06:50
59 4083 COUVELARD Joel 04:48:30 M0M 14 01:17:10 00:54:36 Cdl lumbrois 8.735 06:52
60 4015 COLMAR Bertrand 04:50:59 M1M 9 01:19:39 00:44:01   8.660 06:56
61 4101 ETIENNE Jerome 04:51:02 M1M 10 01:19:42 00:44:04 Tto 8.659 06:56
62 4152 ZELKO Alexandre 04:51:15 M2M 15 01:19:55 00:54:03   8.652 06:56
63 4001 GILABERT Nicolas 04:51:54 SEM 11 01:20:34 01:20:34   8.633 06:57
64 4002 DELMAERE Antoine 04:51:55 SEM 12 01:20:35 01:20:35   8.633 06:57
65 4103 MAHY Benoit 04:51:55 M1M 11 01:20:35 00:44:57   8.633 06:57
66 4112 BECARD Michel 04:52:45 M4M 2 01:21:25 00:27:29   8.608 06:58
67 4121 SAUVAGE Frederic 04:53:15 M2M 16 01:21:55 00:56:03 Le drapeau 8.593 06:59
68 4066 MAQUINGHEN Celine 04:53:42 M1F 3 01:22:22 00:23:01 Boulogne ac 8.580 07:00
69 4021 BERTIN Cedric 04:53:47 M2M 17 01:22:27 00:56:35 Tto 8.578 07:00
70 4090 DESTAILLEUR Marc 04:55:51 M0M 15 01:24:31 01:01:57   8.518 07:03
71 4030 FORTIN Ludovic 04:57:19 M1M 12 01:25:59 00:50:21   8.476 07:05
72 4132 MOLINIER Eric 04:57:57 M3M 7 01:26:37 01:06:54 Dreamrun 8.458 07:06
73 4104 DEFACHELLES Herve 04:58:41 M2M 18 01:27:21 01:01:29 Patriote cross guines 8.437 07:07
74 4057 HACQUEL Michel 04:59:11 M3M 8 01:27:51 01:08:08 Sport plus 8.423 07:07
75 4075 BRIDOUX Christine 05:00:11 M3F 1 01:28:51 00:00:00 Sport plus 8.395 07:09
76 4028 DELATTRE David 05:01:05 M1M 13 01:29:45 00:54:07   8.370 07:10
77 4040 HUEZ Ludovic 05:01:43 M2M 19 01:30:23 01:04:31   8.352 07:11
78 4045 MARTINOT Sebastien 05:02:34 M1M 14 01:31:14 00:55:36   8.329 07:12
79 4080 METTIER Jf 05:03:09 M2M 20 01:31:49 01:05:57 Sport plus 8.313 07:13
80 4135 FARCY Francois 05:05:45 M1M 15 01:34:25 00:58:47   8.242 07:17
81 4089 MARCHAIS Michael 05:06:15 M2M 21 01:34:55 01:09:03   8.229 07:18
82 4146 HAUTBOIS Lucie 05:06:40 M0F 2 01:35:20 00:24:35 Stade lavallois 8.217 07:18
83 4145 GILET Delphine 05:06:40 M2F 3 01:35:20 01:11:30 Stade lavallois 8.217 07:18
84 4139 DEPOSE emilien 05:07:34 SEM 13 01:36:14 01:36:14   8.193 07:19
85 4005 GUILLEMANT Vincent 05:08:35 M1M 16 01:37:15 01:01:37 Team trail opale 8.166 07:21
86 4050 DIEU Stephanie 05:08:45 M2F 4 01:37:25 01:13:35 Tto 8.162 07:21
87 4069 RICHARD Christine 05:09:06 M4F 1 01:37:46 00:00:00 Bac 8.153 07:22
88 4167 BLANPAIN Fabrice 05:09:19 M3M 9 01:37:59 01:18:16   8.147 07:22
89 4046 MAGNIER Francois 05:10:20 M0M 16 01:39:00 01:16:26   8.120 07:23
90 4067 BOURGAIN Michael 05:10:30 M1M 17 01:39:10 01:03:32   8.116 07:24
91 4151 BONVOISIN Eddy 05:11:08 M2M 22 01:39:48 01:13:56 As crs16 8.099 07:24
92 4157 ROBILLARD Helene 05:11:08 M1F 4 01:39:48 00:40:27 As crs16 8.099 07:24
93 4130 LEFEBVRE Gregory 05:11:50 M0M 17 01:40:30 01:17:56   8.081 07:25
94 4126 PINOT Kevin 05:11:50 M0M 18 01:40:30 01:17:56   8.081 07:25
95 4003 DELEPORTE Bertrand 05:12:44 M1M 18 01:41:24 01:05:46   8.058 07:27
96 4085 FEUTRY Pierre 05:15:02 SEM 14 01:43:42 01:43:42   7.999 07:30
97 4088 VANHERSECKE Amandine 05:18:09 SEF 1 01:46:49 00:00:00   7.921 07:34
98 4017 ANSEL Thomas 05:21:10 SEM 15 01:49:50 01:49:50 Tto 7.846 07:39
99 4051 BETENCOURT Thierry 05:21:13 M2M 23 01:49:53 01:24:01   7.845 07:39
100 4063 HOLUIGUE Frederic 05:21:13 M2M 24 01:49:53 01:24:01   7.845 07:39
101 4062 OVION Sylvestre 05:21:14 M3M 10 01:49:54 01:30:11   7.845 07:39
102 4131 VAN ELSUVE Vincent 05:22:25 M2M 25 01:51:05 01:25:13   7.816 07:41
103 4100 DEGROOTE Benjamin 05:23:42 SEM 16 01:52:22 01:52:22   7.785 07:42
104 4086 CASSAR Simon 05:24:34 M0M 19 01:53:14 01:30:40 Boulogne ac 7.764 07:44
105 4007 VANDAELE Jerome 05:25:08 M1M 19 01:53:48 01:18:10   7.751 07:44
106 4073 ROGEE Christelle 05:26:20 M3F 2 01:55:00 00:26:09 Sport plus st etienne au mont 7.722 07:46
107 4006 REGNIER Julien 05:30:15 M1M 20 01:58:55 01:23:17   7.631 07:52
108 4034 CRESSON Karel 05:35:33 M3M 11 02:04:13 01:44:30   7.510 07:59
109 4171 AUFAURE Jerome 05:36:15 M1M 21 02:04:55 01:29:17   7.494 08:00
110 4031 BECARD Ezechiel 05:36:53 M3M 12 02:05:33 01:45:50   7.480 08:01
111 4014 BITOT Frederic 05:36:53 M1M 22 02:05:33 01:29:55   7.480 08:01
112 4042 HUREZ Frederic 05:37:41 M1M 23 02:06:21 01:30:43   7.463 08:02
113 4156 DEWAELE Gaetan 05:37:42 M1M 24 02:06:22 01:30:44 Jsg ghyvelde 7.462 08:02
114 4048 MINEBOIS Priscillia 05:37:43 M0F 3 02:06:23 00:55:38 Unirun 7.462 08:02
115 4010 SENECHAL Delphine 05:38:14 M2F 5 02:06:54 01:43:04   7.450 08:03
116 4047 KRONUS Joel 05:38:42 M4M 3 02:07:22 01:13:26   7.440 08:04
117 4029 BREQUEVILLE Lionel 05:38:42 M3M 13 02:07:22 01:47:39   7.440 08:04
118 4105 LANGLOIS Frederic 05:38:43 M3M 14 02:07:23 01:47:40   7.440 08:04
119 4127 LEPADATU Niculae 05:40:31 M3M 15 02:09:11 01:49:28   7.401 08:06
120 4012 TRIPLET David 05:43:35 SEM 17 02:12:15 02:12:15   7.334 08:11
121 4044 DAQUIN Gerard 05:44:29 M5M 2 02:13:09 01:36:00 Boulogne athletic club 7.315 08:12
122 4053 SILVA Sergio 05:51:56 M1M 25 02:20:36 01:44:58 Wrc 7.160 08:23
123 4173 CLERBOUT Jean marie 05:51:56 M2M 26 02:20:36 01:54:44   7.160 08:23
124 4052 WYART Nicolas 05:53:39 SEM 18 02:22:19 02:22:19   7.126 08:25
125 4125 HELLOT Romuald 05:53:49 M2M 27 02:22:29 01:56:37   7.122 08:25
126 4099 VANDENBERGHE Damien 05:56:53 SEM 19 02:25:33 02:25:33 Unirun 7.061 08:30
127 4074 LE SCIELLOUR Bruno 05:58:47 M4M 4 02:27:27 01:33:31 Sport plus 7.024 08:33
128 4148 KAZMIERCZAK Pierre-etienne 05:59:49 M1M 26 02:28:29 01:52:51   7.004 08:34
129 4026 VANPEPERSTRAETE Eric 06:03:01 M3M 16 02:31:41 02:11:58 Rch 6.942 08:39
130 4038 HEMBERGER Jerome 06:09:30 M1M 27 02:38:10 02:02:32 Tto 6.820 08:48
131 4035 LOUAGE Jerome 06:10:20 M1M 28 02:39:00 02:03:22 Gravity running experience 6.805 08:49
132 4039 DUFRESNOY Emmanuel 06:10:22 M2M 28 02:39:02 02:13:10 Gravity running experience 6.804 08:49
133 4024 BROUILLY Nicolas 06:10:22 M1M 29 02:39:02 02:03:24 Gravity running experience 6.804 08:49
134 4153 DEMOULIN Steeve 06:12:22 M1M 30 02:41:02 02:05:24   6.768 08:52
135 4025 VANPEPERSTRAETE Christelle 06:16:05 M3F 3 02:44:45 01:15:54 Rch 6.701 08:57
136 4058 LEDUC Marie laure 06:19:50 M1F 5 02:48:30 01:49:09   6.634 09:03
137 4124 DUCROQUET Michel 06:25:35 M8M 1 02:54:15 00:00:00 Colembert 6.536 09:11
138 4128 FLAHAUT Serge 06:25:36 M5M 3 02:54:16 02:17:07 Colembert 6.535 09:11
139 4023 LEBAS Franck 06:44:56 M3M 17 03:13:36 02:53:53 Touquet athletic club 6.223 09:38
140 4027 DUFOUR Fabien 06:44:57 M3M 18 03:13:37 02:53:54   6.223 09:39

L'agenda en vidéo